sensor_id;sensor_type;location;lat;lon;timestamp;temperature;humidity
6256;DHT22;3161;48.794;9.784;2022-07-04T00:01:45;20.40;99.90
6256;DHT22;3161;48.794;9.784;2022-07-04T00:04:13;20.40;99.90
6256;DHT22;3161;48.794;9.784;2022-07-04T00:06:40;20.30;99.90
6256;DHT22;3161;48.794;9.784;2022-07-04T00:09:08;20.30;99.90
6256;DHT22;3161;48.794;9.784;2022-07-04T00:11:35;20.20;99.90
6256;DHT22;3161;48.794;9.784;2022-07-04T00:14:03;20.20;99.90
6256;DHT22;3161;48.794;9.784;2022-07-04T00:16:30;20.20;99.90
6256;DHT22;3161;48.794;9.784;2022-07-04T00:18:58;20.20;99.90
6256;DHT22;3161;48.794;9.784;2022-07-04T00:21:26;20.10;99.90
6256;DHT22;3161;48.794;9.784;2022-07-04T00:23:53;20.10;99.90
6256;DHT22;3161;48.794;9.784;2022-07-04T00:26:21;20.20;99.90
6256;DHT22;3161;48.794;9.784;2022-07-04T00:28:48;20.10;99.90
6256;DHT22;3161;48.794;9.784;2022-07-04T00:31:16;20.10;99.90
6256;DHT22;3161;48.794;9.784;2022-07-04T00:33:43;20.10;99.90
6256;DHT22;3161;48.794;9.784;2022-07-04T00:36:11;19.90;99.90
6256;DHT22;3161;48.794;9.784;2022-07-04T00:38:39;19.70;99.90
6256;DHT22;3161;48.794;9.784;2022-07-04T00:41:06;19.60;99.90
6256;DHT22;3161;48.794;9.784;2022-07-04T00:43:34;19.50;99.90
6256;DHT22;3161;48.794;9.784;2022-07-04T00:46:03;19.40;99.90
6256;DHT22;3161;48.794;9.784;2022-07-04T00:48:33;19.40;99.90
6256;DHT22;3161;48.794;9.784;2022-07-04T00:51:00;19.40;99.90
6256;DHT22;3161;48.794;9.784;2022-07-04T00:53:28;19.40;99.90
6256;DHT22;3161;48.794;9.784;2022-07-04T00:55:55;19.40;99.90
6256;DHT22;3161;48.794;9.784;2022-07-04T00:58:23;19.50;99.90
6256;DHT22;3161;48.794;9.784;2022-07-04T01:00:51;19.50;99.90
6256;DHT22;3161;48.794;9.784;2022-07-04T01:03:18;19.50;99.90
6256;DHT22;3161;48.794;9.784;2022-07-04T01:05:46;19.40;99.90
6256;DHT22;3161;48.794;9.784;2022-07-04T01:08:14;19.40;99.90
6256;DHT22;3161;48.794;9.784;2022-07-04T01:10:42;19.40;99.90
6256;DHT22;3161;48.794;9.784;2022-07-04T01:13:21;19.40;99.90
6256;DHT22;3161;48.794;9.784;2022-07-04T01:15:49;19.40;99.90
6256;DHT22;3161;48.794;9.784;2022-07-04T01:18:17;19.40;99.90
6256;DHT22;3161;48.794;9.784;2022-07-04T01:20:45;19.40;99.90
6256;DHT22;3161;48.794;9.784;2022-07-04T01:23:12;19.40;99.90
6256;DHT22;3161;48.794;9.784;2022-07-04T01:25:40;19.40;99.90
6256;DHT22;3161;48.794;9.784;2022-07-04T01:28:08;19.40;99.90
6256;DHT22;3161;48.794;9.784;2022-07-04T01:30:37;19.40;99.90
6256;DHT22;3161;48.794;9.784;2022-07-04T01:33:05;19.40;99.90
6256;DHT22;3161;48.794;9.784;2022-07-04T01:35:33;19.30;99.90
6256;DHT22;3161;48.794;9.784;2022-07-04T01:38:00;19.30;99.90
6256;DHT22;3161;48.794;9.784;2022-07-04T01:40:28;19.30;99.90
6256;DHT22;3161;48.794;9.784;2022-07-04T01:42:56;19.30;99.90
6256;DHT22;3161;48.794;9.784;2022-07-04T01:45:25;19.30;99.90
6256;DHT22;3161;48.794;9.784;2022-07-04T01:47:53;19.20;99.90
6256;DHT22;3161;48.794;9.784;2022-07-04T01:50:21;19.10;99.90
6256;DHT22;3161;48.794;9.784;2022-07-04T01:52:48;19.10;99.90
6256;DHT22;3161;48.794;9.784;2022-07-04T01:55:16;19.10;99.90
6256;DHT22;3161;48.794;9.784;2022-07-04T01:57:44;19.10;99.90
6256;DHT22;3161;48.794;9.784;2022-07-04T02:00:12;19.00;99.90
6256;DHT22;3161;48.794;9.784;2022-07-04T02:02:57;18.90;99.90
6256;DHT22;3161;48.794;9.784;2022-07-04T02:05:24;19.00;99.90
6256;DHT22;3161;48.794;9.784;2022-07-04T02:07:52;18.90;99.90
6256;DHT22;3161;48.794;9.784;2022-07-04T02:10:20;18.90;99.90
6256;DHT22;3161;48.794;9.784;2022-07-04T02:12:52;18.90;99.90
6256;DHT22;3161;48.794;9.784;2022-07-04T02:15:31;18.90;99.90
6256;DHT22;3161;48.794;9.784;2022-07-04T02:17:59;18.90;99.90
6256;DHT22;3161;48.794;9.784;2022-07-04T02:20:27;18.80;99.90
6256;DHT22;3161;48.794;9.784;2022-07-04T02:22:55;18.80;99.90
6256;DHT22;3161;48.794;9.784;2022-07-04T02:25:23;18.80;99.90
6256;DHT22;3161;48.794;9.784;2022-07-04T02:27:51;18.80;99.90
6256;DHT22;3161;48.794;9.784;2022-07-04T02:30:18;18.80;99.90
6256;DHT22;3161;48.794;9.784;2022-07-04T02:32:46;18.80;99.90
6256;DHT22;3161;48.794;9.784;2022-07-04T02:35:13;18.90;99.90
6256;DHT22;3161;48.794;9.784;2022-07-04T02:37:42;18.90;99.90
6256;DHT22;3161;48.794;9.784;2022-07-04T02:40:09;18.80;99.90
6256;DHT22;3161;48.794;9.784;2022-07-04T02:42:37;18.90;99.90
6256;DHT22;3161;48.794;9.784;2022-07-04T02:45:06;18.90;99.90
6256;DHT22;3161;48.794;9.784;2022-07-04T02:47:34;18.80;99.90
6256;DHT22;3161;48.794;9.784;2022-07-04T02:50:01;18.80;99.90
6256;DHT22;3161;48.794;9.784;2022-07-04T02:52:29;18.80;99.90
6256;DHT22;3161;48.794;9.784;2022-07-04T02:54:57;18.90;99.90
6256;DHT22;3161;48.794;9.784;2022-07-04T02:57:25;18.90;99.90
6256;DHT22;3161;48.794;9.784;2022-07-04T02:59:53;18.90;99.90
6256;DHT22;3161;48.794;9.784;2022-07-04T03:02:20;18.90;99.90
6256;DHT22;3161;48.794;9.784;2022-07-04T03:04:48;18.90;99.90
6256;DHT22;3161;48.794;9.784;2022-07-04T03:07:15;18.90;99.90
6256;DHT22;3161;48.794;9.784;2022-07-04T03:09:43;18.90;99.90
6256;DHT22;3161;48.794;9.784;2022-07-04T03:12:10;19.00;99.90
6256;DHT22;3161;48.794;9.784;2022-07-04T03:14:38;19.00;99.90
6256;DHT22;3161;48.794;9.784;2022-07-04T03:17:05;19.00;99.90
6256;DHT22;3161;48.794;9.784;2022-07-04T03:19:33;19.00;99.90
6256;DHT22;3161;48.794;9.784;2022-07-04T03:22:00;19.00;99.90
6256;DHT22;3161;48.794;9.784;2022-07-04T03:24:28;19.00;99.90
6256;DHT22;3161;48.794;9.784;2022-07-04T03:26:55;19.00;99.90
6256;DHT22;3161;48.794;9.784;2022-07-04T03:29:23;19.00;99.90
6256;DHT22;3161;48.794;9.784;2022-07-04T03:31:52;19.00;99.90
6256;DHT22;3161;48.794;9.784;2022-07-04T03:34:19;19.00;99.90
6256;DHT22;3161;48.794;9.784;2022-07-04T03:36:47;19.00;99.90
6256;DHT22;3161;48.794;9.784;2022-07-04T03:39:15;19.00;99.90
6256;DHT22;3161;48.794;9.784;2022-07-04T03:41:42;19.00;99.90
6256;DHT22;3161;48.794;9.784;2022-07-04T03:44:10;19.00;99.90
6256;DHT22;3161;48.794;9.784;2022-07-04T03:46:37;19.00;99.90
6256;DHT22;3161;48.794;9.784;2022-07-04T03:49:05;19.00;99.90
6256;DHT22;3161;48.794;9.784;2022-07-04T03:51:33;19.00;99.90
6256;DHT22;3161;48.794;9.784;2022-07-04T03:54:00;19.00;99.90
6256;DHT22;3161;48.794;9.784;2022-07-04T03:56:28;19.00;99.90
6256;DHT22;3161;48.794;9.784;2022-07-04T03:58:56;19.00;99.90
6256;DHT22;3161;48.794;9.784;2022-07-04T04:01:24;19.00;99.90
6256;DHT22;3161;48.794;9.784;2022-07-04T04:03:52;19.00;99.90
6256;DHT22;3161;48.794;9.784;2022-07-04T04:06:37;18.90;99.90
6256;DHT22;3161;48.794;9.784;2022-07-04T04:09:05;18.90;99.90
6256;DHT22;3161;48.794;9.784;2022-07-04T04:11:32;19.00;99.90
6256;DHT22;3161;48.794;9.784;2022-07-04T04:14:00;19.00;99.90
6256;DHT22;3161;48.794;9.784;2022-07-04T04:16:27;19.00;99.90
6256;DHT22;3161;48.794;9.784;2022-07-04T04:18:55;19.00;99.90
6256;DHT22;3161;48.794;9.784;2022-07-04T04:21:22;19.00;99.90
6256;DHT22;3161;48.794;9.784;2022-07-04T04:23:50;19.00;99.90
6256;DHT22;3161;48.794;9.784;2022-07-04T04:26:17;19.00;99.90
6256;DHT22;3161;48.794;9.784;2022-07-04T04:28:45;19.00;99.90
6256;DHT22;3161;48.794;9.784;2022-07-04T04:31:12;19.00;99.90
6256;DHT22;3161;48.794;9.784;2022-07-04T04:33:41;19.10;99.90
6256;DHT22;3161;48.794;9.784;2022-07-04T04:36:08;19.10;99.90
6256;DHT22;3161;48.794;9.784;2022-07-04T04:38:36;19.10;99.90
6256;DHT22;3161;48.794;9.784;2022-07-04T04:41:04;19.10;99.90
6256;DHT22;3161;48.794;9.784;2022-07-04T04:43:31;19.10;99.90
6256;DHT22;3161;48.794;9.784;2022-07-04T04:45:59;19.10;99.90
6256;DHT22;3161;48.794;9.784;2022-07-04T04:48:26;19.10;99.90
6256;DHT22;3161;48.794;9.784;2022-07-04T04:50:54;19.00;99.90
6256;DHT22;3161;48.794;9.784;2022-07-04T04:53:22;19.00;99.90
6256;DHT22;3161;48.794;9.784;2022-07-04T04:55:53;18.90;99.90
6256;DHT22;3161;48.794;9.784;2022-07-04T04:58:21;18.90;99.90
6256;DHT22;3161;48.794;9.784;2022-07-04T05:00:49;18.90;99.90
6256;DHT22;3161;48.794;9.784;2022-07-04T05:03:17;18.90;99.90
6256;DHT22;3161;48.794;9.784;2022-07-04T05:05:45;18.90;99.90
6256;DHT22;3161;48.794;9.784;2022-07-04T05:08:13;18.80;99.90
6256;DHT22;3161;48.794;9.784;2022-07-04T05:10:40;18.80;99.90
6256;DHT22;3161;48.794;9.784;2022-07-04T05:13:08;18.80;99.90
6256;DHT22;3161;48.794;9.784;2022-07-04T05:15:36;18.80;99.90
6256;DHT22;3161;48.794;9.784;2022-07-04T05:18:03;18.80;99.90
6256;DHT22;3161;48.794;9.784;2022-07-04T05:20:31;18.80;99.90
6256;DHT22;3161;48.794;9.784;2022-07-04T05:23:00;18.90;99.90
6256;DHT22;3161;48.794;9.784;2022-07-04T05:25:27;18.90;99.90
6256;DHT22;3161;48.794;9.784;2022-07-04T05:27:55;18.90;99.90
6256;DHT22;3161;48.794;9.784;2022-07-04T05:30:22;18.90;99.90
6256;DHT22;3161;48.794;9.784;2022-07-04T05:32:50;18.90;99.90
6256;DHT22;3161;48.794;9.784;2022-07-04T05:35:17;19.00;99.90
6256;DHT22;3161;48.794;9.784;2022-07-04T05:37:45;19.00;99.90
6256;DHT22;3161;48.794;9.784;2022-07-04T05:40:13;19.00;99.90
6256;DHT22;3161;48.794;9.784;2022-07-04T05:42:41;19.10;99.90
6256;DHT22;3161;48.794;9.784;2022-07-04T05:45:09;19.20;99.90
6256;DHT22;3161;48.794;9.784;2022-07-04T05:47:36;19.20;99.90
6256;DHT22;3161;48.794;9.784;2022-07-04T05:50:05;19.30;99.90
6256;DHT22;3161;48.794;9.784;2022-07-04T05:52:32;19.30;99.90
6256;DHT22;3161;48.794;9.784;2022-07-04T05:55:00;19.30;99.90
6256;DHT22;3161;48.794;9.784;2022-07-04T05:57:27;19.30;99.90
6256;DHT22;3161;48.794;9.784;2022-07-04T05:59:55;19.40;99.90
6256;DHT22;3161;48.794;9.784;2022-07-04T06:02:22;19.40;99.90
6256;DHT22;3161;48.794;9.784;2022-07-04T06:04:50;19.50;99.90
6256;DHT22;3161;48.794;9.784;2022-07-04T06:07:18;19.50;99.90
6256;DHT22;3161;48.794;9.784;2022-07-04T06:09:45;19.60;99.90
6256;DHT22;3161;48.794;9.784;2022-07-04T06:12:13;19.70;99.90
6256;DHT22;3161;48.794;9.784;2022-07-04T06:14:40;19.70;99.90
6256;DHT22;3161;48.794;9.784;2022-07-04T06:17:08;19.80;99.90
6256;DHT22;3161;48.794;9.784;2022-07-04T06:19:35;20.00;99.90
6256;DHT22;3161;48.794;9.784;2022-07-04T06:22:03;20.10;99.90
6256;DHT22;3161;48.794;9.784;2022-07-04T06:24:31;20.20;99.90
6256;DHT22;3161;48.794;9.784;2022-07-04T06:26:58;20.30;99.90
6256;DHT22;3161;48.794;9.784;2022-07-04T06:29:26;20.40;99.90
6256;DHT22;3161;48.794;9.784;2022-07-04T06:31:54;20.50;99.90
6256;DHT22;3161;48.794;9.784;2022-07-04T06:34:22;20.50;99.90
6256;DHT22;3161;48.794;9.784;2022-07-04T06:37:07;20.50;99.90
6256;DHT22;3161;48.794;9.784;2022-07-04T06:39:35;20.60;99.90
6256;DHT22;3161;48.794;9.784;2022-07-04T06:42:03;20.60;99.90
6256;DHT22;3161;48.794;9.784;2022-07-04T06:44:30;20.60;99.90
6256;DHT22;3161;48.794;9.784;2022-07-04T06:46:58;20.70;99.90
6256;DHT22;3161;48.794;9.784;2022-07-04T06:49:25;20.70;99.90
6256;DHT22;3161;48.794;9.784;2022-07-04T06:51:53;20.70;99.90
6256;DHT22;3161;48.794;9.784;2022-07-04T06:54:20;20.80;99.90
6256;DHT22;3161;48.794;9.784;2022-07-04T06:56:48;20.90;99.90
6256;DHT22;3161;48.794;9.784;2022-07-04T06:59:15;21.00;99.90
6256;DHT22;3161;48.794;9.784;2022-07-04T07:01:43;21.00;99.90
6256;DHT22;3161;48.794;9.784;2022-07-04T07:04:11;21.10;99.90
6256;DHT22;3161;48.794;9.784;2022-07-04T07:06:38;21.10;99.90
6256;DHT22;3161;48.794;9.784;2022-07-04T07:09:06;21.20;99.90
6256;DHT22;3161;48.794;9.784;2022-07-04T07:11:33;21.20;99.90
6256;DHT22;3161;48.794;9.784;2022-07-04T07:14:01;21.20;99.90
6256;DHT22;3161;48.794;9.784;2022-07-04T07:16:28;21.20;99.90
6256;DHT22;3161;48.794;9.784;2022-07-04T07:18:56;21.40;99.90
6256;DHT22;3161;48.794;9.784;2022-07-04T07:21:23;21.50;99.90
6256;DHT22;3161;48.794;9.784;2022-07-04T07:23:51;21.60;99.90
6256;DHT22;3161;48.794;9.784;2022-07-04T07:26:19;21.70;99.90
6256;DHT22;3161;48.794;9.784;2022-07-04T07:28:46;22.00;99.90
6256;DHT22;3161;48.794;9.784;2022-07-04T07:31:14;21.90;99.90
6256;DHT22;3161;48.794;9.784;2022-07-04T07:33:41;22.00;99.90
6256;DHT22;3161;48.794;9.784;2022-07-04T07:36:09;22.10;99.90
6256;DHT22;3161;48.794;9.784;2022-07-04T07:38:36;22.10;99.90
6256;DHT22;3161;48.794;9.784;2022-07-04T07:41:09;22.10;99.90
6256;DHT22;3161;48.794;9.784;2022-07-04T07:43:37;22.10;99.90
6256;DHT22;3161;48.794;9.784;2022-07-04T07:46:06;22.10;99.90
6256;DHT22;3161;48.794;9.784;2022-07-04T07:48:34;22.10;99.90
6256;DHT22;3161;48.794;9.784;2022-07-04T07:51:02;22.30;99.90
6256;DHT22;3161;48.794;9.784;2022-07-04T07:53:30;22.40;99.90
6256;DHT22;3161;48.794;9.784;2022-07-04T07:55:57;22.50;99.90
6256;DHT22;3161;48.794;9.784;2022-07-04T07:58:25;22.70;99.90
6256;DHT22;3161;48.794;9.784;2022-07-04T08:00:53;22.70;99.90
6256;DHT22;3161;48.794;9.784;2022-07-04T08:03:20;22.80;99.90
6256;DHT22;3161;48.794;9.784;2022-07-04T08:06:06;22.80;99.90
6256;DHT22;3161;48.794;9.784;2022-07-04T08:08:34;22.90;99.90
6256;DHT22;3161;48.794;9.784;2022-07-04T08:11:02;22.90;99.90
6256;DHT22;3161;48.794;9.784;2022-07-04T08:13:30;22.90;99.90
6256;DHT22;3161;48.794;9.784;2022-07-04T08:15:58;22.90;99.90
6256;DHT22;3161;48.794;9.784;2022-07-04T08:18:26;22.90;99.90
6256;DHT22;3161;48.794;9.784;2022-07-04T08:20:54;22.90;99.90
6256;DHT22;3161;48.794;9.784;2022-07-04T08:23:21;23.00;99.90
6256;DHT22;3161;48.794;9.784;2022-07-04T08:25:49;23.10;99.90
6256;DHT22;3161;48.794;9.784;2022-07-04T08:28:16;23.10;99.90
6256;DHT22;3161;48.794;9.784;2022-07-04T08:30:44;23.10;99.90
6256;DHT22;3161;48.794;9.784;2022-07-04T08:33:12;23.10;99.90
6256;DHT22;3161;48.794;9.784;2022-07-04T08:35:40;23.10;99.90
6256;DHT22;3161;48.794;9.784;2022-07-04T08:38:07;23.20;99.90
6256;DHT22;3161;48.794;9.784;2022-07-04T08:40:35;23.10;99.90
6256;DHT22;3161;48.794;9.784;2022-07-04T08:43:03;23.10;99.90
6256;DHT22;3161;48.794;9.784;2022-07-04T08:45:32;23.10;99.90
6256;DHT22;3161;48.794;9.784;2022-07-04T08:48:03;23.00;99.90
6256;DHT22;3161;48.794;9.784;2022-07-04T08:50:35;22.80;99.90
6256;DHT22;3161;48.794;9.784;2022-07-04T08:53:12;22.80;99.90
6256;DHT22;3161;48.794;9.784;2022-07-04T08:55:40;22.70;99.90
6256;DHT22;3161;48.794;9.784;2022-07-04T08:58:27;22.70;99.90
6256;DHT22;3161;48.794;9.784;2022-07-04T09:01:00;22.70;99.90
6256;DHT22;3161;48.794;9.784;2022-07-04T09:03:30;22.60;99.90
6256;DHT22;3161;48.794;9.784;2022-07-04T09:05:58;22.60;99.90
6256;DHT22;3161;48.794;9.784;2022-07-04T09:08:26;22.70;99.90
6256;DHT22;3161;48.794;9.784;2022-07-04T09:10:54;22.60;99.90
6256;DHT22;3161;48.794;9.784;2022-07-04T09:13:22;22.60;99.90
6256;DHT22;3161;48.794;9.784;2022-07-04T09:15:51;22.60;99.90
6256;DHT22;3161;48.794;9.784;2022-07-04T09:18:29;22.70;99.90
6256;DHT22;3161;48.794;9.784;2022-07-04T09:21:00;22.80;99.90
6256;DHT22;3161;48.794;9.784;2022-07-04T09:23:30;22.90;99.90
6256;DHT22;3161;48.794;9.784;2022-07-04T09:26:21;23.00;99.90
6256;DHT22;3161;48.794;9.784;2022-07-04T09:28:51;23.10;99.90
6256;DHT22;3161;48.794;9.784;2022-07-04T09:31:25;23.20;99.90
6256;DHT22;3161;48.794;9.784;2022-07-04T09:33:55;23.20;99.90
6256;DHT22;3161;48.794;9.784;2022-07-04T09:36:28;23.40;99.90
6256;DHT22;3161;48.794;9.784;2022-07-04T09:39:14;23.60;99.90
6256;DHT22;3161;48.794;9.784;2022-07-04T09:42:00;23.80;99.90
6256;DHT22;3161;48.794;9.784;2022-07-04T09:44:29;24.20;99.90
6256;DHT22;3161;48.794;9.784;2022-07-04T09:46:57;24.40;99.90
6256;DHT22;3161;48.794;9.784;2022-07-04T09:49:24;24.60;99.90
6256;DHT22;3161;48.794;9.784;2022-07-04T09:51:53;24.80;99.90
6256;DHT22;3161;48.794;9.784;2022-07-04T09:54:28;24.90;99.90
6256;DHT22;3161;48.794;9.784;2022-07-04T09:57:01;25.00;99.90
6256;DHT22;3161;48.794;9.784;2022-07-04T09:59:30;25.20;99.90
6256;DHT22;3161;48.794;9.784;2022-07-04T10:02:08;25.40;99.90
6256;DHT22;3161;48.794;9.784;2022-07-04T10:04:48;25.60;99.90
6256;DHT22;3161;48.794;9.784;2022-07-04T10:09:59;25.80;99.90
6256;DHT22;3161;48.794;9.784;2022-07-04T10:12:28;25.80;99.90
6256;DHT22;3161;48.794;9.784;2022-07-04T10:14:56;25.80;99.90
6256;DHT22;3161;48.794;9.784;2022-07-04T10:17:24;25.80;99.90
6256;DHT22;3161;48.794;9.784;2022-07-04T10:19:52;25.90;99.90
6256;DHT22;3161;48.794;9.784;2022-07-04T10:22:21;25.90;99.90
6256;DHT22;3161;48.794;9.784;2022-07-04T10:24:51;26.00;99.90
6256;DHT22;3161;48.794;9.784;2022-07-04T10:27:19;26.00;99.90
6256;DHT22;3161;48.794;9.784;2022-07-04T10:29:46;26.10;99.90
6256;DHT22;3161;48.794;9.784;2022-07-04T10:32:14;26.10;99.90
6256;DHT22;3161;48.794;9.784;2022-07-04T10:34:42;26.30;99.90
6256;DHT22;3161;48.794;9.784;2022-07-04T10:37:09;26.50;99.90
6256;DHT22;3161;48.794;9.784;2022-07-04T10:39:39;26.70;99.90
6256;DHT22;3161;48.794;9.784;2022-07-04T10:42:07;26.80;99.90
6256;DHT22;3161;48.794;9.784;2022-07-04T10:44:35;26.90;99.90
6256;DHT22;3161;48.794;9.784;2022-07-04T10:47:05;26.90;99.90
6256;DHT22;3161;48.794;9.784;2022-07-04T10:49:35;27.00;99.90
6256;DHT22;3161;48.794;9.784;2022-07-04T10:52:10;27.10;99.90
6256;DHT22;3161;48.794;9.784;2022-07-04T10:54:49;27.10;99.90
6256;DHT22;3161;48.794;9.784;2022-07-04T10:57:22;27.10;99.90
6256;DHT22;3161;48.794;9.784;2022-07-04T11:02:35;27.10;99.90
6256;DHT22;3161;48.794;9.784;2022-07-04T11:05:11;27.20;99.90
6256;DHT22;3161;48.794;9.784;2022-07-04T11:18:09;27.40;99.90
6256;DHT22;3161;48.794;9.784;2022-07-04T11:20:37;27.40;99.30
6256;DHT22;3161;48.794;9.784;2022-07-04T11:23:08;27.30;98.90
6256;DHT22;3161;48.794;9.784;2022-07-04T11:25:37;27.30;98.60
6256;DHT22;3161;48.794;9.784;2022-07-04T11:28:24;27.40;98.50
6256;DHT22;3161;48.794;9.784;2022-07-04T11:30:54;27.40;99.50
6256;DHT22;3161;48.794;9.784;2022-07-04T11:33:24;27.60;98.30
6256;DHT22;3161;48.794;9.784;2022-07-04T11:36:07;27.70;98.10
6256;DHT22;3161;48.794;9.784;2022-07-04T11:38:54;27.80;97.30
6256;DHT22;3161;48.794;9.784;2022-07-04T11:44:12;27.90;96.40
6256;DHT22;3161;48.794;9.784;2022-07-04T11:47:18;28.00;96.70
6256;DHT22;3161;48.794;9.784;2022-07-04T11:49:49;28.20;95.50
6256;DHT22;3161;48.794;9.784;2022-07-04T11:52:20;28.30;96.00
6256;DHT22;3161;48.794;9.784;2022-07-04T11:54:48;28.50;94.90
6256;DHT22;3161;48.794;9.784;2022-07-04T11:57:19;28.60;94.50
6256;DHT22;3161;48.794;9.784;2022-07-04T11:59:58;28.70;93.00
6256;DHT22;3161;48.794;9.784;2022-07-04T12:02:28;28.80;93.90
6256;DHT22;3161;48.794;9.784;2022-07-04T12:04:56;28.90;93.30
6256;DHT22;3161;48.794;9.784;2022-07-04T12:07:26;29.10;93.30
6256;DHT22;3161;48.794;9.784;2022-07-04T12:09:55;29.10;93.50
6256;DHT22;3161;48.794;9.784;2022-07-04T12:12:23;29.10;93.80
6256;DHT22;3161;48.794;9.784;2022-07-04T12:17:38;29.30;92.90
6256;DHT22;3161;48.794;9.784;2022-07-04T12:20:17;29.30;91.80
6256;DHT22;3161;48.794;9.784;2022-07-04T12:22:51;29.20;92.40
6256;DHT22;3161;48.794;9.784;2022-07-04T12:25:27;29.20;92.60
6256;DHT22;3161;48.794;9.784;2022-07-04T12:30:35;29.50;93.30
6256;DHT22;3161;48.794;9.784;2022-07-04T12:33:05;30.00;90.20
6256;DHT22;3161;48.794;9.784;2022-07-04T12:35:51;30.90;88.80
6256;DHT22;3161;48.794;9.784;2022-07-04T12:40:59;33.10;79.00
6256;DHT22;3161;48.794;9.784;2022-07-04T12:46:19;34.80;69.90
6256;DHT22;3161;48.794;9.784;2022-07-04T12:48:43;35.70;63.40
6256;DHT22;3161;48.794;9.784;2022-07-04T12:51:16;36.10;62.00
6256;DHT22;3161;48.794;9.784;2022-07-04T12:53:45;36.60;62.00
6256;DHT22;3161;48.794;9.784;2022-07-04T12:56:35;36.90;56.60
6256;DHT22;3161;48.794;9.784;2022-07-04T12:59:05;36.90;54.00
6256;DHT22;3161;48.794;9.784;2022-07-04T13:01:33;36.20;54.90
6256;DHT22;3161;48.794;9.784;2022-07-04T13:04:01;35.50;55.80
6256;DHT22;3161;48.794;9.784;2022-07-04T13:06:29;35.00;57.60
6256;DHT22;3161;48.794;9.784;2022-07-04T13:08:57;34.40;55.40
6256;DHT22;3161;48.794;9.784;2022-07-04T13:11:25;33.70;57.00
6256;DHT22;3161;48.794;9.784;2022-07-04T13:14:11;33.10;58.20
6256;DHT22;3161;48.794;9.784;2022-07-04T13:16:38;32.50;62.00
6256;DHT22;3161;48.794;9.784;2022-07-04T13:19:06;32.70;60.70
6256;DHT22;3161;48.794;9.784;2022-07-04T13:21:33;33.10;59.10
6256;DHT22;3161;48.794;9.784;2022-07-04T13:24:01;33.40;58.30
6256;DHT22;3161;48.794;9.784;2022-07-04T13:26:29;33.60;56.80
6256;DHT22;3161;48.794;9.784;2022-07-04T13:28:58;33.80;56.60
6256;DHT22;3161;48.794;9.784;2022-07-04T13:31:27;33.80;57.30
6256;DHT22;3161;48.794;9.784;2022-07-04T13:33:55;33.90;58.50
6256;DHT22;3161;48.794;9.784;2022-07-04T13:36:23;34.00;60.10
6256;DHT22;3161;48.794;9.784;2022-07-04T13:38:51;34.20;60.30
6256;DHT22;3161;48.794;9.784;2022-07-04T13:41:18;34.60;58.30
6256;DHT22;3161;48.794;9.784;2022-07-04T13:43:46;35.10;55.90
6256;DHT22;3161;48.794;9.784;2022-07-04T13:46:14;36.00;57.20
6256;DHT22;3161;48.794;9.784;2022-07-04T13:48:41;36.90;52.40
6256;DHT22;3161;48.794;9.784;2022-07-04T13:51:09;38.00;51.50
6256;DHT22;3161;48.794;9.784;2022-07-04T13:53:36;39.40;47.30
6256;DHT22;3161;48.794;9.784;2022-07-04T13:56:04;40.90;46.20
6256;DHT22;3161;48.794;9.784;2022-07-04T13:58:32;42.10;44.30
6256;DHT22;3161;48.794;9.784;2022-07-04T14:01:00;42.20;41.60
6256;DHT22;3161;48.794;9.784;2022-07-04T14:03:27;41.10;42.70
6256;DHT22;3161;48.794;9.784;2022-07-04T14:05:55;39.40;43.90
6256;DHT22;3161;48.794;9.784;2022-07-04T14:08:23;37.90;46.80
6256;DHT22;3161;48.794;9.784;2022-07-04T14:10:50;36.20;46.20
6256;DHT22;3161;48.794;9.784;2022-07-04T14:13:18;35.40;46.40
6256;DHT22;3161;48.794;9.784;2022-07-04T14:15:45;34.50;47.60
6256;DHT22;3161;48.794;9.784;2022-07-04T14:18:13;34.00;52.10
6256;DHT22;3161;48.794;9.784;2022-07-04T14:20:41;33.60;52.70
6256;DHT22;3161;48.794;9.784;2022-07-04T14:23:08;33.20;52.80
6256;DHT22;3161;48.794;9.784;2022-07-04T14:25:36;32.80;52.70
6256;DHT22;3161;48.794;9.784;2022-07-04T14:28:04;32.60;52.60
6256;DHT22;3161;48.794;9.784;2022-07-04T14:30:32;32.30;55.10
6256;DHT22;3161;48.794;9.784;2022-07-04T14:32:59;32.00;55.50
6256;DHT22;3161;48.794;9.784;2022-07-04T14:35:27;31.90;54.50
6256;DHT22;3161;48.794;9.784;2022-07-04T14:37:54;31.70;56.50
6256;DHT22;3161;48.794;9.784;2022-07-04T14:40:23;31.50;55.40
6256;DHT22;3161;48.794;9.784;2022-07-04T14:42:50;31.40;56.10
6256;DHT22;3161;48.794;9.784;2022-07-04T14:45:18;31.20;56.50
6256;DHT22;3161;48.794;9.784;2022-07-04T14:47:46;31.00;57.30
6256;DHT22;3161;48.794;9.784;2022-07-04T14:50:13;30.80;56.50
6256;DHT22;3161;48.794;9.784;2022-07-04T14:52:41;30.70;56.00
6256;DHT22;3161;48.794;9.784;2022-07-04T14:55:08;30.50;55.50
6256;DHT22;3161;48.794;9.784;2022-07-04T14:57:36;30.40;56.70
6256;DHT22;3161;48.794;9.784;2022-07-04T15:00:04;30.30;57.20
6256;DHT22;3161;48.794;9.784;2022-07-04T15:02:32;30.20;56.00
6256;DHT22;3161;48.794;9.784;2022-07-04T15:05:00;30.10;57.50
6256;DHT22;3161;48.794;9.784;2022-07-04T15:07:27;30.00;58.30
6256;DHT22;3161;48.794;9.784;2022-07-04T15:09:56;29.90;57.50
6256;DHT22;3161;48.794;9.784;2022-07-04T15:12:24;29.80;57.00
6256;DHT22;3161;48.794;9.784;2022-07-04T15:14:52;29.70;57.20
6256;DHT22;3161;48.794;9.784;2022-07-04T15:17:19;29.60;56.70
6256;DHT22;3161;48.794;9.784;2022-07-04T15:19:47;29.60;55.90
6256;DHT22;3161;48.794;9.784;2022-07-04T15:22:33;29.50;56.70
6256;DHT22;3161;48.794;9.784;2022-07-04T15:25:19;29.50;55.20
6256;DHT22;3161;48.794;9.784;2022-07-04T15:27:46;29.40;56.70
6256;DHT22;3161;48.794;9.784;2022-07-04T15:30:14;29.30;56.60
6256;DHT22;3161;48.794;9.784;2022-07-04T15:32:41;29.20;56.80
6256;DHT22;3161;48.794;9.784;2022-07-04T15:35:09;29.20;57.80
6256;DHT22;3161;48.794;9.784;2022-07-04T15:37:36;29.10;60.50
6256;DHT22;3161;48.794;9.784;2022-07-04T15:40:05;29.10;59.40
6256;DHT22;3161;48.794;9.784;2022-07-04T15:42:33;29.10;60.50
6256;DHT22;3161;48.794;9.784;2022-07-04T15:45:00;29.10;61.50
6256;DHT22;3161;48.794;9.784;2022-07-04T15:47:28;29.10;59.70
6256;DHT22;3161;48.794;9.784;2022-07-04T15:49:55;29.10;66.70
6256;DHT22;3161;48.794;9.784;2022-07-04T15:52:23;29.00;63.70
6256;DHT22;3161;48.794;9.784;2022-07-04T15:54:51;28.90;62.00
6256;DHT22;3161;48.794;9.784;2022-07-04T15:57:19;28.90;64.50
6256;DHT22;3161;48.794;9.784;2022-07-04T15:59:47;28.80;63.00
6256;DHT22;3161;48.794;9.784;2022-07-04T16:02:14;28.80;65.20
6256;DHT22;3161;48.794;9.784;2022-07-04T16:04:42;28.90;64.60
6256;DHT22;3161;48.794;9.784;2022-07-04T16:07:09;28.80;64.90
6256;DHT22;3161;48.794;9.784;2022-07-04T16:09:37;28.80;63.30
6256;DHT22;3161;48.794;9.784;2022-07-04T16:12:05;28.70;62.80
6256;DHT22;3161;48.794;9.784;2022-07-04T16:14:32;28.60;62.20
6256;DHT22;3161;48.794;9.784;2022-07-04T16:17:00;28.50;61.00
6256;DHT22;3161;48.794;9.784;2022-07-04T16:19:28;28.50;62.10
6256;DHT22;3161;48.794;9.784;2022-07-04T16:21:56;28.40;60.70
6256;DHT22;3161;48.794;9.784;2022-07-04T16:24:24;28.40;61.30
6256;DHT22;3161;48.794;9.784;2022-07-04T16:26:51;28.30;59.90
6256;DHT22;3161;48.794;9.784;2022-07-04T16:29:19;28.30;60.70
6256;DHT22;3161;48.794;9.784;2022-07-04T16:31:46;28.20;62.20
6256;DHT22;3161;48.794;9.784;2022-07-04T16:34:14;28.20;60.90
6256;DHT22;3161;48.794;9.784;2022-07-04T16:36:41;28.20;61.20
6256;DHT22;3161;48.794;9.784;2022-07-04T16:39:09;28.20;58.80
6256;DHT22;3161;48.794;9.784;2022-07-04T16:41:36;28.10;59.60
6256;DHT22;3161;48.794;9.784;2022-07-04T16:44:04;28.10;60.20